createdAt,value
2018-08-03T00:02:24.971Z,14.27
2018-08-03T00:04:54.380Z,13.30
2018-08-03T00:07:23.785Z,13.37
2018-08-03T00:09:53.338Z,12.03
2018-08-03T00:12:22.772Z,13.37
2018-08-03T00:14:52.192Z,11.67
2018-08-03T00:17:21.888Z,11.97
2018-08-03T00:19:51.748Z,12.07
2018-08-03T00:22:21.656Z,12.33
2018-08-03T00:24:51.360Z,12.53
2018-08-03T00:27:21.081Z,11.17
2018-08-03T00:29:50.863Z,11.63
2018-08-03T00:32:20.572Z,12.83
2018-08-03T00:34:50.317Z,10.37
2018-08-03T00:37:20.163Z,10.90
2018-08-03T00:39:53.972Z,11.90
2018-08-03T00:42:23.631Z,11.50
2018-08-03T00:44:53.457Z,11.10
2018-08-03T00:47:23.288Z,11.40
2018-08-03T00:49:53.075Z,11.20
2018-08-03T00:52:22.891Z,11.70
2018-08-03T00:54:52.673Z,11.60
2018-08-03T00:57:22.418Z,11.47
2018-08-03T00:59:52.228Z,11.93
2018-08-03T01:02:22.084Z,11.77
2018-08-03T01:04:51.753Z,11.43
2018-08-03T01:07:21.602Z,11.60
2018-08-03T01:09:51.380Z,11.53
2018-08-03T01:12:21.063Z,11.30
2018-08-03T01:14:55.288Z,12.50
2018-08-03T01:17:28.274Z,12.30
2018-08-03T01:19:59.472Z,12.20
2018-08-03T01:22:29.444Z,11.87
2018-08-03T01:24:59.316Z,12.67
2018-08-03T01:27:29.060Z,12.00
2018-08-03T01:29:58.832Z,12.20
2018-08-03T01:32:28.599Z,11.47
2018-08-03T01:34:58.353Z,11.30
2018-08-03T01:37:28.002Z,12.00
2018-08-03T01:39:57.619Z,11.40
2018-08-03T01:42:27.479Z,12.43
2018-08-03T01:44:57.243Z,11.17
2018-08-03T01:47:27.001Z,12.30
2018-08-03T01:49:56.713Z,12.03
2018-08-03T01:52:26.352Z,12.80
2018-08-03T01:54:56.107Z,13.27
2018-08-03T01:57:25.789Z,11.57
2018-08-03T01:59:55.571Z,12.53
2018-08-03T02:02:25.312Z,12.50
2018-08-03T02:04:55.120Z,13.17
2018-08-03T02:07:24.938Z,13.20
2018-08-03T02:09:54.736Z,12.70
2018-08-03T02:12:24.528Z,12.80
2018-08-03T02:14:54.057Z,13.13
2018-08-03T02:17:23.753Z,14.80
2018-08-03T02:19:53.586Z,13.50
2018-08-03T02:22:23.389Z,13.07
2018-08-03T02:24:53.219Z,13.57
2018-08-03T02:27:23.000Z,14.17
2018-08-03T02:29:52.786Z,12.77
2018-08-03T02:32:22.543Z,15.07
2018-08-03T02:34:52.640Z,13.43
2018-08-03T02:37:22.358Z,13.90
2018-08-03T02:39:52.029Z,13.20
2018-08-03T02:42:21.800Z,12.90
2018-08-03T02:44:51.540Z,12.50
2018-08-03T02:47:21.171Z,13.23
2018-08-03T02:49:50.932Z,12.10
2018-08-03T02:52:20.681Z,12.63
2018-08-03T02:54:50.341Z,12.93
2018-08-03T02:57:20.046Z,12.57
2018-08-03T02:59:49.662Z,12.20
2018-08-03T03:02:19.372Z,12.63
2018-08-03T03:04:49.337Z,12.70
2018-08-03T03:07:19.083Z,12.23
2018-08-03T03:09:48.865Z,12.13
2018-08-03T03:12:18.517Z,12.03
2018-08-03T03:14:48.404Z,13.27
2018-08-03T03:17:18.037Z,11.97
2018-08-03T03:19:48.007Z,12.20
2018-08-03T03:22:17.774Z,12.23
2018-08-03T03:24:47.478Z,12.67
2018-08-03T03:27:17.238Z,12.07
2018-08-03T03:29:46.999Z,10.87
2018-08-03T03:32:16.716Z,12.57
2018-08-03T03:34:46.413Z,12.60
2018-08-03T03:37:16.109Z,12.03
2018-08-03T03:39:45.791Z,12.87
2018-08-03T03:42:14.891Z,11.93
2018-08-03T03:44:44.542Z,13.30
2018-08-03T03:47:14.405Z,12.50
2018-08-03T03:49:44.193Z,13.00
2018-08-03T03:52:14.045Z,12.63
2018-08-03T03:54:43.887Z,12.10
2018-08-03T03:57:13.760Z,12.00
2018-08-03T03:59:43.413Z,12.13
2018-08-03T04:02:13.172Z,12.53
2018-08-03T04:04:42.941Z,12.67
2018-08-03T04:07:12.740Z,12.83
2018-08-03T04:09:42.464Z,13.23
2018-08-03T04:12:12.252Z,12.07
2018-08-03T04:14:42.080Z,13.30
2018-08-03T04:17:11.799Z,12.97
2018-08-03T04:19:41.560Z,12.13
2018-08-03T04:22:11.302Z,12.43
2018-08-03T04:24:41.103Z,11.77
2018-08-03T04:27:10.843Z,12.43
2018-08-03T04:29:40.700Z,12.77
2018-08-03T04:32:10.467Z,12.33
2018-08-03T04:34:40.328Z,13.67
2018-08-03T04:37:10.080Z,12.83
2018-08-03T04:39:39.891Z,13.83
2018-08-03T04:42:09.823Z,12.27
2018-08-03T04:44:39.661Z,13.80
2018-08-03T04:47:09.391Z,13.13
2018-08-03T04:49:39.046Z,12.63
2018-08-03T04:52:08.912Z,13.17
2018-08-03T04:54:38.741Z,12.67
2018-08-03T04:57:08.263Z,12.07
2018-08-03T04:59:37.890Z,12.70
2018-08-03T05:02:07.600Z,13.23
2018-08-03T05:04:37.371Z,13.20
2018-08-03T05:07:07.128Z,13.63
2018-08-03T05:09:36.797Z,14.43
2018-08-03T05:12:06.534Z,13.60
2018-08-03T05:14:36.286Z,13.43
2018-08-03T05:17:06.058Z,13.07
2018-08-03T05:19:35.642Z,13.03
2018-08-03T05:22:05.532Z,11.80
2018-08-03T05:24:35.197Z,11.53
2018-08-03T05:27:05.047Z,12.10
2018-08-03T05:29:34.704Z,13.20
2018-08-03T05:32:04.422Z,12.03
2018-08-03T05:34:34.136Z,13.10
2018-08-03T05:37:04.012Z,12.47
2018-08-03T05:39:33.749Z,11.00
2018-08-03T05:42:03.563Z,12.33
2018-08-03T05:44:33.533Z,12.30
2018-08-03T05:47:03.169Z,12.80
2018-08-03T05:49:32.868Z,13.70
2018-08-03T05:52:02.616Z,12.50
2018-08-03T05:54:32.475Z,13.60
2018-08-03T05:57:01.584Z,12.80
2018-08-03T05:59:31.321Z,13.40
2018-08-03T06:02:01.200Z,13.90
2018-08-03T06:04:30.848Z,13.83
2018-08-03T06:07:00.721Z,12.90
2018-08-03T06:09:30.646Z,12.67
2018-08-03T06:12:00.446Z,12.17
2018-08-03T06:14:30.192Z,12.50
2018-08-03T06:16:59.968Z,14.10
2018-08-03T06:19:29.528Z,12.80
2018-08-03T06:21:59.328Z,12.97
2018-08-03T06:24:29.042Z,12.30
2018-08-03T06:26:58.823Z,12.93
2018-08-03T06:29:28.629Z,13.57
2018-08-03T06:31:58.317Z,11.47
2018-08-03T06:34:27.990Z,13.77
2018-08-03T06:36:57.798Z,13.73
2018-08-03T06:39:27.669Z,13.20
2018-08-03T06:41:57.521Z,12.60
2018-08-03T06:44:27.225Z,13.30
2018-08-03T06:46:56.951Z,13.67
2018-08-03T06:49:26.692Z,12.70
2018-08-03T06:52:02.647Z,13.03
2018-08-03T06:54:43.965Z,13.90
2018-08-03T06:57:15.008Z,12.93
2018-08-03T06:59:45.472Z,11.87
2018-08-03T07:02:15.751Z,11.30
2018-08-03T07:04:45.385Z,12.17
2018-08-03T07:07:15.157Z,13.30
2018-08-03T07:09:44.410Z,12.40
2018-08-03T07:12:14.216Z,12.33
2018-08-03T07:14:44.090Z,11.90
2018-08-03T07:17:13.336Z,12.43
2018-08-03T07:19:43.015Z,11.93
2018-08-03T07:22:12.728Z,12.50
2018-08-03T07:24:42.436Z,11.83
2018-08-03T07:27:12.215Z,13.17
2018-08-03T07:29:41.293Z,12.73
2018-08-03T07:32:11.069Z,11.33
2018-08-03T07:34:40.964Z,11.33
2018-08-03T07:37:10.714Z,10.40
2018-08-03T07:39:40.572Z,10.03
2018-08-03T07:42:10.424Z,10.03
2018-08-03T07:44:40.373Z,10.87
2018-08-03T07:47:10.549Z,9.80
2018-08-03T07:49:40.173Z,9.20
2018-08-03T07:52:10.014Z,11.20
2018-08-03T07:54:39.797Z,10.33
2018-08-03T07:57:09.617Z,9.53
2018-08-03T07:59:39.278Z,10.57
2018-08-03T08:02:09.153Z,10.20
2018-08-03T08:04:39.006Z,9.50
2018-08-03T08:07:08.865Z,9.77
2018-08-03T08:09:38.748Z,9.40
2018-08-03T08:12:08.581Z,9.17
2018-08-03T08:14:38.444Z,8.20
2018-08-03T08:17:08.306Z,9.00
2018-08-03T08:19:38.176Z,8.73
2018-08-03T08:22:07.429Z,8.63
2018-08-03T08:24:37.242Z,7.83
2018-08-03T08:27:07.258Z,7.97
2018-08-03T08:29:37.044Z,8.55
2018-08-03T08:32:06.836Z,8.53
2018-08-03T08:34:36.492Z,8.88
2018-08-03T08:37:06.364Z,8.65
2018-08-03T08:39:36.121Z,8.80
2018-08-03T08:42:06.134Z,8.60
2018-08-03T08:44:35.937Z,9.70
2018-08-03T08:47:05.656Z,8.60
2018-08-03T08:49:37.434Z,8.58
2018-08-03T08:52:06.949Z,9.05
2018-08-03T08:54:36.405Z,9.70
2018-08-03T08:57:06.032Z,9.07
2018-08-03T08:59:35.905Z,9.33
2018-08-03T09:02:05.348Z,9.80
2018-08-03T09:04:34.789Z,8.90
2018-08-03T09:07:04.260Z,9.43
2018-08-03T09:09:33.660Z,8.38
2018-08-03T09:12:03.037Z,9.18
2018-08-03T09:14:32.879Z,8.60
2018-08-03T09:17:03.813Z,8.88
2018-08-03T09:19:33.613Z,8.67
2018-08-03T09:22:05.103Z,9.53
2018-08-03T09:24:34.498Z,8.70
2018-08-03T09:27:03.995Z,10.00
2018-08-03T09:29:33.424Z,10.50
2018-08-03T09:32:02.948Z,10.07
2018-08-03T09:34:32.448Z,10.53
2018-08-03T09:37:01.919Z,10.10
2018-08-03T09:39:31.414Z,10.33
2018-08-03T09:42:00.911Z,10.27
2018-08-03T09:44:30.327Z,10.47
2018-08-03T09:46:59.764Z,10.40
2018-08-03T09:49:29.159Z,11.50
2018-08-03T09:51:58.644Z,9.70
2018-08-03T09:54:28.078Z,10.53
2018-08-03T09:56:57.477Z,9.60
2018-08-03T09:59:26.865Z,8.60
2018-08-03T10:01:56.306Z,9.73
2018-08-03T10:04:25.715Z,9.53
2018-08-03T10:06:55.129Z,9.53
2018-08-03T10:09:24.542Z,9.77
2018-08-03T10:11:53.964Z,10.30
2018-08-03T10:14:23.353Z,8.97
2018-08-03T10:16:52.771Z,10.27
2018-08-03T10:19:22.236Z,8.90
2018-08-03T10:21:51.651Z,8.60
2018-08-03T10:24:21.066Z,8.30
2018-08-03T10:26:50.538Z,8.58
2018-08-03T10:29:20.156Z,8.03
2018-08-03T10:31:49.553Z,8.97
2018-08-03T10:34:19.006Z,9.37
2018-08-03T10:36:48.393Z,8.97
2018-08-03T10:39:17.811Z,10.13
2018-08-03T10:41:47.200Z,9.03
2018-08-03T10:44:16.024Z,10.13
2018-08-03T10:46:45.492Z,9.23
2018-08-03T10:49:14.912Z,11.03
2018-08-03T10:51:44.325Z,10.97
2018-08-03T10:54:13.746Z,9.30
2018-08-03T10:56:43.217Z,9.97
2018-08-03T10:59:12.636Z,9.97
2018-08-03T11:01:42.190Z,10.10
2018-08-03T11:04:11.549Z,10.13
2018-08-03T11:06:41.000Z,10.40
2018-08-03T11:09:10.952Z,10.37
2018-08-03T11:11:40.394Z,10.83
2018-08-03T11:14:09.913Z,9.67
2018-08-03T11:16:39.349Z,11.40
2018-08-03T11:19:08.749Z,9.87
2018-08-03T11:21:38.221Z,9.40
2018-08-03T11:24:07.707Z,10.90
2018-08-03T11:26:37.209Z,9.83
2018-08-03T11:29:06.636Z,10.53
2018-08-03T11:31:36.070Z,9.63
2018-08-03T11:34:05.858Z,9.87
2018-08-03T11:36:35.339Z,10.00
2018-08-03T11:39:06.363Z,9.97
2018-08-03T11:41:36.002Z,10.13
2018-08-03T11:44:06.312Z,10.23
2018-08-03T11:46:35.773Z,9.83
2018-08-03T11:49:05.261Z,10.37
2018-08-03T11:51:34.754Z,9.33
2018-08-03T11:54:04.285Z,9.10
2018-08-03T11:56:33.681Z,8.53
2018-08-03T11:59:03.141Z,9.97
2018-08-03T12:01:32.550Z,10.33
2018-08-03T12:04:02.016Z,9.57
2018-08-03T12:06:31.493Z,10.33
2018-08-03T12:09:01.009Z,10.30
2018-08-03T12:11:30.495Z,11.03
2018-08-03T12:13:59.931Z,9.40
2018-08-03T12:16:29.344Z,9.77
2018-08-03T12:18:58.845Z,9.77
2018-08-03T12:21:28.266Z,10.27
2018-08-03T12:23:57.752Z,9.70
2018-08-03T12:26:27.162Z,9.20
2018-08-03T12:28:56.565Z,8.70
2018-08-03T12:31:26.106Z,8.50
2018-08-03T12:33:55.518Z,9.20
2018-08-03T12:36:24.982Z,9.40
2018-08-03T12:38:54.440Z,8.57
2018-08-03T12:41:23.855Z,8.33
2018-08-03T12:43:53.270Z,9.50
2018-08-03T12:46:22.738Z,8.93
2018-08-03T12:48:52.185Z,8.87
2018-08-03T12:51:21.684Z,9.17
2018-08-03T12:53:51.077Z,9.20
2018-08-03T12:56:20.524Z,8.73
2018-08-03T12:58:50.419Z,8.60
2018-08-03T13:01:20.730Z,8.27
2018-08-03T13:03:50.948Z,9.03
2018-08-03T13:06:20.570Z,8.20
2018-08-03T13:08:50.097Z,9.70
2018-08-03T13:11:20.216Z,8.73
2018-08-03T13:13:50.175Z,8.47
2018-08-03T13:16:19.941Z,8.10
2018-08-03T13:18:49.380Z,8.00
2018-08-03T13:21:30.093Z,8.30
2018-08-03T13:24:01.194Z,6.90
2018-08-03T13:26:31.669Z,6.47
2018-08-03T13:29:01.417Z,6.00
2018-08-03T13:31:31.404Z,7.00
2018-08-03T13:34:00.930Z,6.80
2018-08-03T13:36:31.196Z,5.60
2018-08-03T13:39:00.691Z,6.90
2018-08-03T13:41:30.408Z,5.87
2018-08-03T13:43:59.948Z,6.03
2018-08-03T13:46:29.377Z,5.90
2018-08-03T13:48:58.819Z,5.10
2018-08-03T13:51:28.347Z,5.40
2018-08-03T13:53:57.760Z,5.50
2018-08-03T13:56:27.197Z,5.60
2018-08-03T13:58:56.637Z,4.97
2018-08-03T14:01:38.234Z,4.80
2018-08-03T14:04:07.780Z,5.60
2018-08-03T14:06:37.833Z,5.17
2018-08-03T14:09:08.084Z,5.20
2018-08-03T14:11:59.212Z,5.33
2018-08-03T14:14:59.571Z,5.30
2018-08-03T14:17:46.365Z,5.10
2018-08-03T14:20:38.533Z,5.60
2018-08-03T14:23:08.588Z,6.13
2018-08-03T14:25:38.038Z,5.27
2018-08-03T14:28:07.540Z,6.00
2018-08-03T14:30:37.064Z,5.60
2018-08-03T14:33:06.556Z,5.33
2018-08-03T14:35:36.115Z,5.30
2018-08-03T14:38:05.828Z,5.67
2018-08-03T14:40:35.521Z,5.07
2018-08-03T14:43:05.276Z,5.07
2018-08-03T14:45:34.926Z,5.40
2018-08-03T14:48:04.546Z,5.40
2018-08-03T14:50:34.142Z,5.80
2018-08-03T14:53:03.768Z,6.00
2018-08-03T14:55:33.275Z,5.40
2018-08-03T14:58:02.717Z,6.33
2018-08-03T15:00:32.733Z,6.20
2018-08-03T15:03:04.153Z,7.07
2018-08-03T15:05:33.657Z,9.40
2018-08-03T15:08:03.155Z,9.90
2018-08-03T15:10:32.937Z,8.97
2018-08-03T15:13:02.589Z,7.77
2018-08-03T15:15:32.296Z,7.70
2018-08-03T15:18:01.789Z,7.23
2018-08-03T15:20:31.232Z,7.37
2018-08-03T15:23:01.164Z,7.43
2018-08-03T15:25:30.638Z,7.53
2018-08-03T15:28:00.127Z,6.43
2018-08-03T15:30:30.357Z,7.63
2018-08-03T15:32:59.998Z,7.20
2018-08-03T15:35:29.972Z,7.80
2018-08-03T15:37:59.880Z,7.13
2018-08-03T15:40:29.346Z,7.17
2018-08-03T15:42:58.809Z,7.13
2018-08-03T15:45:28.816Z,7.70
2018-08-03T15:47:58.267Z,6.90
2018-08-03T15:50:27.765Z,7.33
2018-08-03T15:52:57.201Z,7.23
2018-08-03T15:55:26.654Z,5.93
2018-08-03T15:57:56.361Z,6.83
2018-08-03T16:00:25.752Z,5.53
2018-08-03T16:02:55.821Z,6.50
2018-08-03T16:05:25.260Z,6.47
2018-08-03T16:07:54.726Z,6.03
2018-08-03T16:10:24.485Z,7.50
2018-08-03T16:12:54.381Z,7.07
2018-08-03T16:15:24.329Z,6.40
2018-08-03T16:17:53.581Z,6.03
2018-08-03T16:20:23.477Z,6.17
2018-08-03T16:22:52.950Z,7.30
2018-08-03T16:25:22.350Z,6.20
2018-08-03T16:27:51.383Z,6.47
2018-08-03T16:30:21.257Z,7.27
2018-08-03T16:32:50.336Z,6.80
2018-08-03T16:35:20.035Z,6.13
2018-08-03T16:37:49.904Z,5.60
2018-08-03T16:40:19.845Z,6.70
2018-08-03T16:42:49.660Z,6.07
2018-08-03T16:45:19.180Z,6.43
2018-08-03T16:47:48.621Z,6.10
2018-08-03T16:50:18.159Z,5.60
2018-08-03T16:52:47.640Z,5.70
2018-08-03T16:55:17.098Z,5.20
2018-08-03T16:57:47.015Z,5.63
2018-08-03T17:00:18.622Z,6.20
2018-08-03T17:02:48.552Z,6.47
2018-08-03T17:05:18.269Z,5.93
2018-08-03T17:07:47.985Z,5.77
2018-08-03T17:10:17.844Z,5.97
2018-08-03T17:12:47.097Z,7.70
2018-08-03T17:15:16.885Z,7.97
2018-08-03T17:17:46.564Z,7.93
2018-08-03T17:20:15.701Z,8.70
2018-08-03T17:22:45.413Z,8.07
2018-08-03T17:25:15.285Z,7.23
2018-08-03T17:27:44.400Z,7.23
2018-08-03T17:30:14.135Z,7.20
2018-08-03T17:32:43.840Z,7.60
2018-08-03T17:35:13.665Z,15.07
2018-08-03T17:37:43.357Z,10.40
2018-08-03T17:40:13.265Z,11.77
2018-08-03T17:42:43.130Z,16.10
2018-08-03T17:45:12.249Z,12.17
2018-08-03T17:47:41.343Z,12.33
2018-08-03T17:50:11.156Z,13.00
2018-08-03T17:52:41.022Z,10.90
2018-08-03T17:55:10.777Z,10.43
2018-08-03T17:57:40.437Z,12.33
2018-08-03T18:00:10.373Z,11.70
2018-08-03T18:02:40.163Z,10.90
2018-08-03T18:05:10.028Z,11.90
2018-08-03T18:07:39.911Z,10.83
2018-08-03T18:10:09.754Z,12.17
2018-08-03T18:12:39.425Z,11.37
2018-08-03T18:15:09.688Z,11.03
2018-08-03T18:17:39.358Z,10.90
2018-08-03T18:20:09.185Z,11.03
2018-08-03T18:22:38.970Z,11.20
2018-08-03T18:25:08.829Z,11.17
2018-08-03T18:27:38.611Z,10.80
2018-08-03T18:30:08.661Z,10.53
2018-08-03T18:32:38.445Z,10.90
2018-08-03T18:35:08.289Z,10.90
2018-08-03T18:37:38.221Z,11.40
2018-08-03T18:40:09.753Z,11.40
2018-08-03T18:42:39.801Z,10.63
2018-08-03T18:45:09.830Z,9.87
2018-08-03T18:47:39.646Z,10.87
2018-08-03T18:50:09.472Z,11.60
2018-08-03T18:52:39.285Z,11.10
2018-08-03T18:55:09.089Z,10.63
2018-08-03T18:57:38.855Z,11.97
2018-08-03T19:00:08.765Z,11.60
2018-08-03T19:02:38.409Z,11.30
2018-08-03T19:05:08.819Z,10.27
2018-08-03T19:07:38.554Z,10.33
2018-08-03T19:10:08.496Z,10.80
2018-08-03T19:12:38.069Z,11.93
2018-08-03T19:15:08.272Z,10.47
2018-08-03T19:17:38.072Z,10.27
2018-08-03T19:20:08.713Z,9.57
2018-08-03T19:22:38.560Z,10.27
2018-08-03T19:25:08.647Z,10.80
2018-08-03T19:27:38.557Z,10.50
2018-08-03T19:30:08.362Z,11.13
2018-08-03T19:32:38.009Z,10.97
2018-08-03T19:35:07.884Z,11.60
2018-08-03T19:37:37.650Z,11.40
2018-08-03T19:40:08.145Z,11.73
2018-08-03T19:42:37.846Z,10.73
2018-08-03T19:45:07.955Z,11.80
2018-08-03T19:47:37.541Z,11.20
2018-08-03T19:50:08.088Z,11.97
2018-08-03T19:52:37.771Z,10.77
2018-08-03T19:55:07.493Z,10.60
2018-08-03T19:57:37.324Z,11.20
2018-08-03T20:00:08.908Z,11.47
2018-08-03T20:02:38.820Z,12.13
2018-08-03T20:05:09.407Z,10.83
2018-08-03T20:07:39.084Z,11.27
2018-08-03T20:10:09.192Z,11.70
2018-08-03T20:12:38.895Z,11.60
2018-08-03T20:15:08.925Z,11.33
2018-08-03T20:17:38.749Z,12.60
2018-08-03T20:20:08.704Z,12.10
2018-08-03T20:22:38.388Z,12.97
2018-08-03T20:25:08.520Z,12.47
2018-08-03T20:27:38.353Z,11.60
2018-08-03T20:30:08.971Z,11.50
2018-08-03T20:32:39.005Z,11.67
2018-08-03T20:35:08.913Z,11.70
2018-08-03T20:37:38.854Z,11.90
2018-08-03T20:40:09.658Z,11.37
2018-08-03T20:42:39.583Z,11.50
2018-08-03T20:45:08.769Z,11.47
2018-08-03T20:47:38.722Z,11.60
2018-08-03T20:50:08.583Z,11.23
2018-08-03T20:52:37.895Z,12.47
2018-08-03T20:55:07.687Z,11.00
2018-08-03T20:57:37.492Z,12.10
2018-08-03T21:00:07.760Z,12.70
2018-08-03T21:02:37.604Z,12.10
2018-08-03T21:05:08.329Z,13.00
2018-08-03T21:07:38.204Z,12.30
2018-08-03T21:10:08.039Z,12.73
2018-08-03T21:12:37.943Z,13.30
2018-08-03T21:15:08.904Z,13.37
2018-08-03T21:17:39.214Z,12.60
2018-08-03T21:20:09.695Z,11.97
2018-08-03T21:22:40.884Z,13.73
2018-08-03T21:25:10.656Z,12.63
2018-08-03T21:27:40.438Z,12.30
2018-08-03T21:30:11.097Z,11.70
2018-08-03T21:32:40.963Z,13.27
2018-08-03T21:35:10.772Z,13.77
2018-08-03T21:37:40.404Z,13.37
2018-08-03T21:40:10.397Z,13.30
2018-08-03T21:42:40.145Z,13.60
2018-08-03T21:45:11.283Z,13.27
2018-08-03T21:47:40.931Z,13.60
2018-08-03T21:50:11.084Z,12.80
2018-08-03T21:52:41.332Z,12.20
2018-08-03T21:55:11.472Z,13.37
2018-08-03T21:57:42.490Z,13.20
2018-08-03T22:00:16.641Z,14.13
2018-08-03T22:02:47.168Z,13.17
2018-08-03T22:05:17.100Z,13.80
2018-08-03T22:07:47.917Z,13.97
2018-08-03T22:10:18.739Z,13.90
2018-08-03T22:12:49.064Z,13.93
2018-08-03T22:15:19.533Z,13.40
2018-08-03T22:17:49.097Z,14.13
2018-08-03T22:20:19.067Z,14.70
2018-08-03T22:22:49.237Z,13.80
2018-08-03T22:25:20.053Z,13.50
2018-08-03T22:27:51.116Z,13.57
2018-08-03T22:30:21.609Z,13.40
2018-08-03T22:32:51.287Z,13.27
2018-08-03T22:35:21.585Z,13.40
2018-08-03T22:37:51.345Z,13.90
2018-08-03T22:40:21.123Z,13.13
2018-08-03T22:42:51.400Z,13.20
2018-08-03T22:45:21.149Z,15.23
2018-08-03T22:47:51.215Z,14.50
2018-08-03T22:50:22.297Z,15.10
2018-08-03T22:52:53.363Z,13.43
2018-08-03T22:55:23.272Z,14.60
2018-08-03T22:57:56.105Z,14.20
2018-08-03T23:00:26.963Z,12.83
2018-08-03T23:02:57.360Z,14.23
2018-08-03T23:05:27.147Z,15.77
2018-08-03T23:07:57.308Z,14.30
2018-08-03T23:10:27.385Z,15.07
2018-08-03T23:12:57.528Z,14.70
2018-08-03T23:15:27.266Z,14.87
2018-08-03T23:17:57.068Z,15.00
2018-08-03T23:20:26.774Z,14.77
2018-08-03T23:22:56.487Z,14.10
2018-08-03T23:25:26.400Z,14.37
2018-08-03T23:27:56.084Z,14.30
2018-08-03T23:30:25.769Z,14.37
2018-08-03T23:32:55.620Z,15.20
2018-08-03T23:35:25.501Z,15.00
2018-08-03T23:37:55.253Z,14.70
2018-08-03T23:40:25.115Z,14.33
2018-08-03T23:42:54.640Z,14.77
2018-08-03T23:45:24.361Z,14.03
2018-08-03T23:47:54.043Z,14.67
2018-08-03T23:50:23.701Z,15.10
2018-08-03T23:52:53.392Z,14.60
2018-08-03T23:55:23.064Z,14.70
2018-08-03T23:57:52.736Z,16.93
